Time;durP1;ratioP1;P1;durP2;ratioP2;P2;SDS_P1;SDS_P2;PMS_P1;PMS_P2;Temp;Humidity;BMP_temperature;BMP_pressure;BME280_temperature;BME280_humidity;BME280_pressure;Samples;Min_cycle;Max_cycle;Signal;HPM_P1;HPM_P2
2023/11/28 00:01:02;;;;;;;7.47;6.57;;;;;;;;;;5073802;28;20056;-65
2023/11/28 00:03:29;;;;;;;8.32;7.07;;;;;;;;;;5074066;28;20048;-65
2023/11/28 00:05:56;;;;;;;8.90;7.82;;;;;;;;;;5074004;28;20052;-65
2023/11/28 00:08:22;;;;;;;8.55;7.55;;;;;;;;;;5073983;28;20056;-65
2023/11/28 00:10:49;;;;;;;8.45;7.55;;;;;;;;;;5073987;28;20416;-65
2023/11/28 00:13:16;;;;;;;8.93;8.02;;;;;;;;;;5074439;28;20061;-64
2023/11/28 00:15:44;;;;;;;8.82;7.85;;;;;;;;;;5073908;28;20063;-64
2023/11/28 00:18:11;;;;;;;8.82;7.40;;;;;;;;;;5073502;28;20064;-64
2023/11/28 00:20:38;;;;;;;8.00;7.18;;;;;;;;;;5073603;28;20070;-64
2023/11/28 00:23:05;;;;;;;7.63;6.70;;;;;;;;;;5073960;28;20048;-64
2023/11/28 00:25:31;;;;;;;7.93;7.13;;;;;;;;;;5073106;28;20048;-64
2023/11/28 00:27:58;;;;;;;7.13;6.43;;;;;;;;;;5073441;28;20071;-64
2023/11/28 00:30:25;;;;;;;7.50;6.32;;;;;;;;;;5073569;28;20509;-64
2023/11/28 00:32:53;;;;;;;8.55;6.55;;;;;;;;;;5073168;28;20055;-64
2023/11/28 00:35:20;;;;;;;7.03;6.25;;;;;;;;;;5073302;28;20127;-64
2023/11/28 00:37:47;;;;;;;6.20;5.60;;;;;;;;;;5072998;28;20056;-64
2023/11/28 00:40:14;;;;;;;6.60;5.80;;;;;;;;;;5073710;28;20052;-64
2023/11/28 00:42:41;;;;;;;5.97;5.38;;;;;;;;;;5072964;28;20520;-64
2023/11/28 00:45:08;;;;;;;6.47;5.75;;;;;;;;;;5073310;28;20052;-65
2023/11/28 00:47:35;;;;;;;6.63;5.80;;;;;;;;;;5073396;28;20059;-64
2023/11/28 00:50:03;;;;;;;6.53;5.32;;;;;;;;;;5072857;28;20058;-64
2023/11/28 00:52:30;;;;;;;6.00;5.40;;;;;;;;;;5073197;28;20063;-64
2023/11/28 00:54:57;;;;;;;6.88;6.18;;;;;;;;;;5073385;28;20063;-64
2023/11/28 00:57:24;;;;;;;7.38;6.22;;;;;;;;;;5073012;28;20052;-64
2023/11/28 00:59:51;;;;;;;6.95;6.15;;;;;;;;;;5071886;28;20053;-64
2023/11/28 01:02:18;;;;;;;7.07;6.38;;;;;;;;;;5072799;28;20056;-64
2023/11/28 01:04:45;;;;;;;6.88;6.13;;;;;;;;;;5070529;28;20044;-64
2023/11/28 01:07:13;;;;;;;6.95;6.20;;;;;;;;;;5072568;28;20056;-64
2023/11/28 01:09:40;;;;;;;7.57;6.78;;;;;;;;;;5072792;28;20052;-64
2023/11/28 01:12:07;;;;;;;7.90;7.10;;;;;;;;;;5073290;28;20053;-64
2023/11/28 01:14:34;;;;;;;7.38;6.57;;;;;;;;;;5072511;28;20076;-64
2023/11/28 01:17:04;;;;;;;8.30;6.80;;;;;;;;;;5073238;28;20164;-64
2023/11/28 01:19:30;;;;;;;7.85;6.35;;;;;;;;;;5072800;28;20048;-63
2023/11/28 01:21:57;;;;;;;6.97;6.28;;;;;;;;;;5073145;28;20067;-63
2023/11/28 01:24:25;;;;;;;6.88;6.10;;;;;;;;;;5072601;28;20064;-63
2023/11/28 01:26:52;;;;;;;6.75;6.03;;;;;;;;;;5073163;28;20048;-63
2023/11/28 01:29:19;;;;;;;7.18;6.47;;;;;;;;;;5073014;28;20379;-63
2023/11/28 01:31:46;;;;;;;5.80;5.20;;;;;;;;;;5073027;28;20056;-63
2023/11/28 01:34:13;;;;;;;6.95;5.63;;;;;;;;;;5072654;28;20059;-63
2023/11/28 01:36:40;;;;;;;6.22;5.43;;;;;;;;;;5073010;28;20056;-63
2023/11/28 01:39:07;;;;;;;5.82;5.05;;;;;;;;;;5072775;28;20057;-63
2023/11/28 01:41:36;;;;;;;5.43;4.55;;;;;;;;;;5072689;28;20065;-62
2023/11/28 01:44:04;;;;;;;5.63;4.55;;;;;;;;;;5072772;28;20052;-63
2023/11/28 01:46:32;;;;;;;5.65;5.05;;;;;;;;;;5072696;28;20504;-63
2023/11/28 01:48:59;;;;;;;5.22;4.68;;;;;;;;;;5072045;28;20053;-63
2023/11/28 01:51:26;;;;;;;5.47;4.90;;;;;;;;;;5072473;28;20386;-63
2023/11/28 01:53:56;;;;;;;6.25;5.07;;;;;;;;;;5072072;28;20389;-62
2023/11/28 01:56:23;;;;;;;5.30;4.80;;;;;;;;;;5072178;28;20079;-63
2023/11/28 01:58:52;;;;;;;4.95;4.45;;;;;;;;;;5072379;28;20060;-63
2023/11/28 02:01:20;;;;;;;5.10;4.60;;;;;;;;;;5072345;28;20044;-63
2023/11/28 02:03:47;;;;;;;5.43;4.75;;;;;;;;;;5071824;28;20059;-63
2023/11/28 02:06:14;;;;;;;5.63;4.55;;;;;;;;;;5071788;28;20056;-63
2023/11/28 02:08:41;;;;;;;5.35;4.85;;;;;;;;;;5071945;28;20138;-63
2023/11/28 02:11:08;;;;;;;6.00;5.40;;;;;;;;;;5075451;28;20393;-63
2023/11/28 02:13:35;;;;;;;5.28;4.78;;;;;;;;;;5076178;28;20386;-63
2023/11/28 02:16:11;;;;;;;5.50;5.00;;;;;;;;;;5076279;28;20397;-63
2023/11/28 02:18:38;;;;;;;6.47;5.65;;;;;;;;;;5075757;28;20060;-63
2023/11/28 02:21:05;;;;;;;6.38;5.70;;;;;;;;;;5075953;28;20049;-62
2023/11/28 02:23:33;;;;;;;6.22;5.63;;;;;;;;;;5075645;28;20056;-62
2023/11/28 02:26:03;;;;;;;7.30;5.85;;;;;;;;;;5075820;28;20393;-61
2023/11/28 02:28:31;;;;;;;6.30;5.70;;;;;;;;;;5075562;28;20068;-61
2023/11/28 02:30:58;;;;;;;6.55;5.88;;;;;;;;;;5075620;28;20059;-62
2023/11/28 02:33:26;;;;;;;8.38;7.57;;;;;;;;;;5075844;28;20055;-62
2023/11/28 02:35:53;;;;;;;8.15;7.35;;;;;;;;;;5075494;28;20057;-63
2023/11/28 02:38:19;;;;;;;7.05;6.35;;;;;;;;;;5075293;28;20063;-62
2023/11/28 02:40:46;;;;;;;8.82;7.45;;;;;;;;;;5075749;28;20056;-62
2023/11/28 02:43:16;;;;;;;8.10;7.30;;;;;;;;;;5075430;28;20052;-63
2023/11/28 02:45:45;;;;;;;8.60;7.70;;;;;;;;;;5075740;28;20342;-62
2023/11/28 02:48:12;;;;;;;7.70;6.93;;;;;;;;;;5075792;28;20052;-62
2023/11/28 02:50:39;;;;;;;7.50;6.80;;;;;;;;;;5075379;28;20496;-62
2023/11/28 02:53:06;;;;;;;8.32;7.63;;;;;;;;;;5075287;28;20049;-62
2023/11/28 02:55:32;;;;;;;7.32;6.63;;;;;;;;;;5075390;28;20055;-62
2023/11/28 02:58:00;;;;;;;8.45;7.65;;;;;;;;;;5075014;28;20092;-62
2023/11/28 03:00:28;;;;;;;8.20;7.40;;;;;;;;;;5075193;28;20052;-62
2023/11/28 03:02:56;;;;;;;8.00;7.18;;;;;;;;;;5075268;28;20052;-62
2023/11/28 03:05:23;;;;;;;8.38;7.57;;;;;;;;;;5075218;28;20139;-62
2023/11/28 03:07:51;;;;;;;9.35;8.32;;;;;;;;;;5075189;28;20397;-62
2023/11/28 03:10:18;;;;;;;8.50;7.70;;;;;;;;;;5074687;28;20060;-62
2023/11/28 03:12:44;;;;;;;8.35;7.60;;;;;;;;;;5074899;28;20469;-62
2023/11/28 03:15:11;;;;;;;8.88;8.07;;;;;;;;;;5074514;28;20080;-62
2023/11/28 03:17:38;;;;;;;9.27;8.38;;;;;;;;;;5074402;28;20428;-61
2023/11/28 03:20:07;;;;;;;9.30;8.35;;;;;;;;;;5074401;28;20155;-62
2023/11/28 03:22:34;;;;;;;8.48;7.68;;;;;;;;;;5074389;28;20052;-62
2023/11/28 03:25:05;;;;;;;8.63;7.70;;;;;;;;;;5074275;28;20462;-62
2023/11/28 03:27:32;;;;;;;8.18;7.43;;;;;;;;;;5074310;28;20424;-62
2023/11/28 03:29:58;;;;;;;9.15;8.25;;;;;;;;;;5074749;28;20481;-62
2023/11/28 03:32:25;;;;;;;8.82;7.93;;;;;;;;;;5074755;28;20480;-63
2023/11/28 03:34:52;;;;;;;8.68;7.78;;;;;;;;;;5074541;28;20052;-62
2023/11/28 03:37:20;;;;;;;8.95;8.15;;;;;;;;;;5074713;28;20057;-62
2023/11/28 03:39:47;;;;;;;9.35;8.35;;;;;;;;;;5074367;28;20052;-62
2023/11/28 03:42:14;;;;;;;7.97;7.28;;;;;;;;;;5074194;28;20059;-62
2023/11/28 03:44:40;;;;;;;9.27;8.27;;;;;;;;;;5083525;28;20052;-62
2023/11/28 03:47:07;;;;;;;8.80;8.00;;;;;;;;;;5095283;28;20063;-62
2023/11/28 03:49:34;;;;;;;8.23;7.43;;;;;;;;;;5094819;28;20059;-62
2023/11/28 03:52:01;;;;;;;8.50;7.70;;;;;;;;;;5094796;28;20052;-62
2023/11/28 03:54:29;;;;;;;8.73;7.93;;;;;;;;;;5094530;28;20052;-62
2023/11/28 03:56:56;;;;;;;9.10;8.20;;;;;;;;;;5094914;28;20052;-62
2023/11/28 03:59:22;;;;;;;9.65;8.75;;;;;;;;;;5094639;28;20059;-63
2023/11/28 04:01:49;;;;;;;8.90;8.10;;;;;;;;;;5094345;28;20051;-62
2023/11/28 04:04:16;;;;;;;8.95;8.13;;;;;;;;;;5094483;28;20047;-62
2023/11/28 04:06:43;;;;;;;8.70;7.90;;;;;;;;;;5094111;28;20067;-62
2023/11/28 04:09:10;;;;;;;8.85;7.95;;;;;;;;;;5094271;28;20052;-62
2023/11/28 04:11:38;;;;;;;8.05;7.25;;;;;;;;;;5094439;28;20059;-62
2023/11/28 04:14:05;;;;;;;7.72;7.03;;;;;;;;;;5094059;28;20047;-62
2023/11/28 04:16:32;;;;;;;8.40;7.45;;;;;;;;;;5094222;28;20052;-62
2023/11/28 04:18:58;;;;;;;8.25;7.45;;;;;;;;;;5094520;28;20067;-62
2023/11/28 04:21:26;;;;;;;8.48;7.57;;;;;;;;;;5094204;28;20497;-62
2023/11/28 04:23:52;;;;;;;7.85;7.15;;;;;;;;;;5094043;28;20405;-62
2023/11/28 04:26:19;;;;;;;7.63;6.93;;;;;;;;;;5094040;28;20060;-63
2023/11/28 04:28:47;;;;;;;8.13;7.32;;;;;;;;;;5093717;28;20075;-62
2023/11/28 04:31:18;;;;;;;9.20;8.30;;;;;;;;;;5093686;28;20062;-62
2023/11/28 04:33:44;;;;;;;8.55;7.53;;;;;;;;;;5092874;28;20070;-62
2023/11/28 04:36:11;;;;;;;9.20;8.30;;;;;;;;;;5093928;28;20060;-62
2023/11/28 04:38:38;;;;;;;8.73;7.82;;;;;;;;;;5093654;28;20052;-62
2023/11/28 04:41:05;;;;;;;7.32;6.63;;;;;;;;;;5093544;28;20055;-63
2023/11/28 04:43:32;;;;;;;9.57;8.63;;;;;;;;;;5093794;28;20055;-62
2023/11/28 04:46:00;;;;;;;9.43;8.52;;;;;;;;;;5073519;28;20059;-62
2023/11/28 04:48:27;;;;;;;10.55;9.00;;;;;;;;;;5073528;28;20412;-62
2023/11/28 04:50:57;;;;;;;9.35;7.90;;;;;;;;;;5073139;28;20049;-63
2023/11/28 04:53:23;;;;;;;9.45;8.55;;;;;;;;;;5073449;28;20052;-63
2023/11/28 04:55:50;;;;;;;9.27;8.38;;;;;;;;;;5073024;28;20139;-62
2023/11/28 04:58:17;;;;;;;11.02;9.82;;;;;;;;;;5072932;28;20052;-62
2023/11/28 05:00:44;;;;;;;11.73;10.50;;;;;;;;;;5072823;28;20417;-62
2023/11/28 05:03:12;;;;;;;11.00;9.82;;;;;;;;;;5073341;28;20071;-62
2023/11/28 05:05:39;;;;;;;11.90;10.75;;;;;;;;;;5073128;28;20057;-62
2023/11/28 05:08:06;;;;;;;11.68;9.88;;;;;;;;;;5072763;28;20052;-62
2023/11/28 05:10:33;;;;;;;12.00;10.80;;;;;;;;;;5073260;28;20404;-62
2023/11/28 05:13:02;;;;;;;11.20;10.20;;;;;;;;;;5072839;28;20405;-62
2023/11/28 05:15:29;;;;;;;12.75;11.45;;;;;;;;;;5072812;28;20052;-62
2023/11/28 05:17:56;;;;;;;12.50;11.25;;;;;;;;;;5072631;28;20059;-62
2023/11/28 05:20:24;;;;;;;13.10;11.65;;;;;;;;;;5072783;28;20079;-63
2023/11/28 05:22:50;;;;;;;12.00;10.77;;;;;;;;;;5072704;28;20059;-62
2023/11/28 05:25:17;;;;;;;13.07;11.77;;;;;;;;;;5072371;28;20064;-62
2023/11/28 05:27:44;;;;;;;14.40;11.85;;;;;;;;;;5072659;28;20415;-62
2023/11/28 05:30:12;;;;;;;13.30;11.55;;;;;;;;;;5072515;28;20071;-62
2023/11/28 05:32:38;;;;;;;13.30;10.98;;;;;;;;;;5072388;28;20056;-62
2023/11/28 05:35:05;;;;;;;13.98;11.20;;;;;;;;;;5072900;28;20052;-62
2023/11/28 05:37:34;;;;;;;13.23;10.60;;;;;;;;;;5072789;28;20063;-62
2023/11/28 05:40:03;;;;;;;13.73;10.77;;;;;;;;;;5072267;28;20079;-62
2023/11/28 05:42:30;;;;;;;13.52;11.45;;;;;;;;;;5071937;28;20075;-62
2023/11/28 05:44:57;;;;;;;13.63;11.35;;;;;;;;;;5071887;28;20059;-62
2023/11/28 05:47:24;;;;;;;13.75;11.65;;;;;;;;;;5072453;28;20052;-62
2023/11/28 05:49:51;;;;;;;13.95;11.48;;;;;;;;;;5072565;28;20064;-62
2023/11/28 05:52:19;;;;;;;15.00;11.55;;;;;;;;;;5072493;28;20079;-62
2023/11/28 05:54:47;;;;;;;12.30;10.90;;;;;;;;;;5072669;28;20064;-62
2023/11/28 05:57:14;;;;;;;12.93;11.35;;;;;;;;;;5072570;28;20059;-62
2023/11/28 05:59:41;;;;;;;14.07;12.25;;;;;;;;;;5072689;28;20060;-62
2023/11/28 06:02:08;;;;;;;13.63;12.07;;;;;;;;;;5072699;28;20482;-62
2023/11/28 06:04:35;;;;;;;16.83;13.85;;;;;;;;;;5072344;28;20068;-62
2023/11/28 06:07:02;;;;;;;15.60;13.10;;;;;;;;;;5072536;28;20064;-62
2023/11/28 06:09:29;;;;;;;13.40;12.00;;;;;;;;;;5071961;28;20059;-62
2023/11/28 06:11:58;;;;;;;15.15;11.07;;;;;;;;;;5072160;28;20052;-62
2023/11/28 06:14:25;;;;;;;14.77;10.27;;;;;;;;;;5072196;28;20055;-62
2023/11/28 06:16:51;;;;;;;12.38;10.65;;;;;;;;;;5072149;28;20071;-62
2023/11/28 06:19:19;;;;;;;13.52;10.75;;;;;;;;;;5072141;28;20059;-62
2023/11/28 06:21:47;;;;;;;14.05;11.18;;;;;;;;;;5071895;28;20138;-62
2023/11/28 06:24:14;;;;;;;14.63;10.95;;;;;;;;;;5072085;28;20060;-62
2023/11/28 06:26:41;;;;;;;14.93;10.27;;;;;;;;;;5071936;28;20539;-62
2023/11/28 06:29:09;;;;;;;12.82;9.35;;;;;;;;;;5071445;28;20053;-62
2023/11/28 06:31:36;;;;;;;15.55;10.73;;;;;;;;;;5072348;28;20473;-62
2023/11/28 06:34:02;;;;;;;15.20;11.40;;;;;;;;;;5071722;28;20048;-63
2023/11/28 06:36:30;;;;;;;14.95;10.85;;;;;;;;;;5071742;28;20059;-63
2023/11/28 06:38:57;;;;;;;13.02;10.52;;;;;;;;;;5071966;28;20055;-62
2023/11/28 06:41:24;;;;;;;13.48;11.30;;;;;;;;;;5071628;28;20056;-63
2023/11/28 06:43:51;;;;;;;12.82;10.65;;;;;;;;;;5071761;28;20060;-63
2023/11/28 06:46:21;;;;;;;16.35;11.13;;;;;;;;;;5071694;28;20049;-63
2023/11/28 06:48:48;;;;;;;13.23;10.60;;;;;;;;;;5071917;28;20053;-63
2023/11/28 06:51:15;;;;;;;12.90;10.90;;;;;;;;;;5071495;28;20048;-63
2023/11/28 06:53:42;;;;;;;13.98;11.23;;;;;;;;;;5071402;28;20053;-63
2023/11/28 06:56:10;;;;;;;14.50;11.48;;;;;;;;;;5071731;28;20053;-63
2023/11/28 06:58:36;;;;;;;13.95;10.30;;;;;;;;;;5075057;28;20059;-63
2023/11/28 07:01:04;;;;;;;17.45;12.73;;;;;;;;;;5075156;28;20160;-63
2023/11/28 07:03:32;;;;;;;13.88;10.90;;;;;;;;;;5074851;28;20052;-63
2023/11/28 07:05:59;;;;;;;15.30;11.75;;;;;;;;;;5075087;28;20401;-63
2023/11/28 07:08:26;;;;;;;15.30;12.13;;;;;;;;;;5074699;28;20056;-63
2023/11/28 07:10:53;;;;;;;17.02;12.57;;;;;;;;;;5074860;28;20059;-64
2023/11/28 07:13:20;;;;;;;15.75;10.55;;;;;;;;;;5074678;28;20048;-63
2023/11/28 07:15:47;;;;;;;11.30;9.27;;;;;;;;;;5074588;28;20048;-63
2023/11/28 07:18:19;;;;;;;12.57;9.30;;;;;;;;;;5074785;28;20048;-63
2023/11/28 07:20:48;;;;;;;11.02;8.95;;;;;;;;;;5074328;28;20059;-63
2023/11/28 07:23:15;;;;;;;11.70;9.40;;;;;;;;;;5075179;28;20048;-63
2023/11/28 07:25:42;;;;;;;11.10;8.98;;;;;;;;;;5074543;28;20461;-63
2023/11/28 07:28:09;;;;;;;10.60;8.32;;;;;;;;;;5074481;28;20059;-63
2023/11/28 07:30:36;;;;;;;12.35;9.05;;;;;;;;;;5074167;28;20062;-63
2023/11/28 07:33:03;;;;;;;10.82;9.07;;;;;;;;;;5074498;28;20404;-63
2023/11/28 07:35:30;;;;;;;9.52;7.80;;;;;;;;;;5074021;28;20056;-63
2023/11/28 07:37:58;;;;;;;10.35;8.05;;;;;;;;;;5074295;28;20131;-63
2023/11/28 07:40:26;;;;;;;10.55;9.10;;;;;;;;;;5074478;28;20056;-63
2023/11/28 07:42:53;;;;;;;9.82;8.23;;;;;;;;;;5074065;28;20063;-63
2023/11/28 07:45:20;;;;;;;12.10;9.27;;;;;;;;;;5073917;28;20048;-63
2023/11/28 07:47:47;;;;;;;13.82;9.90;;;;;;;;;;5073878;28;20048;-63
2023/11/28 07:50:15;;;;;;;11.20;8.77;;;;;;;;;;5073665;28;20053;-63
2023/11/28 07:52:41;;;;;;;10.77;8.98;;;;;;;;;;5074193;28;20599;-63
2023/11/28 07:55:11;;;;;;;9.68;7.65;;;;;;;;;;5074066;28;20474;-63
2023/11/28 07:57:38;;;;;;;13.27;10.32;;;;;;;;;;5073973;28;20094;-63
2023/11/28 08:00:07;;;;;;;14.38;10.48;;;;;;;;;;5074163;28;20438;-63
2023/11/28 08:02:34;;;;;;;11.38;8.52;;;;;;;;;;5074622;28;20060;-63
2023/11/28 08:05:02;;;;;;;22.10;13.98;;;;;;;;;;5073838;28;20059;-63
2023/11/28 08:07:29;;;;;;;13.52;10.15;;;;;;;;;;5074215;28;20053;-63
2023/11/28 08:09:56;;;;;;;14.43;11.05;;;;;;;;;;5073682;28;20052;-63
2023/11/28 08:12:24;;;;;;;15.77;10.32;;;;;;;;;;5074068;28;20056;-62
2023/11/28 08:14:51;;;;;;;13.52;9.65;;;;;;;;;;5073826;28;20051;-63
2023/11/28 08:17:18;;;;;;;22.75;14.00;;;;;;;;;;5074070;28;20052;-63
2023/11/28 08:19:45;;;;;;;16.48;11.18;;;;;;;;;;5073988;28;20519;-63
2023/11/28 08:22:12;;;;;;;9.43;7.53;;;;;;;;;;5072385;28;20056;-63
2023/11/28 08:24:39;;;;;;;9.00;7.20;;;;;;;;;;5073072;28;20044;-63
2023/11/28 08:27:06;;;;;;;11.07;7.30;;;;;;;;;;5073513;28;20416;-63
2023/11/28 08:29:34;;;;;;;11.35;8.18;;;;;;;;;;5073289;28;20063;-63
2023/11/28 08:32:01;;;;;;;13.25;9.57;;;;;;;;;;5073643;28;20049;-63
2023/11/28 08:34:28;;;;;;;15.88;11.95;;;;;;;;;;5073315;28;20045;-63
2023/11/28 08:36:55;;;;;;;10.70;7.78;;;;;;;;;;5073665;28;20056;-63
2023/11/28 08:39:23;;;;;;;10.95;9.02;;;;;;;;;;5072994;28;20441;-63
2023/11/28 08:41:50;;;;;;;6.97;5.90;;;;;;;;;;5072818;28;20056;-63
2023/11/28 08:44:16;;;;;;;8.68;6.57;;;;;;;;;;5078376;28;20048;-63
2023/11/28 08:46:45;;;;;;;7.32;5.45;;;;;;;;;;5092880;28;20056;-63
2023/11/28 08:49:12;;;;;;;9.23;8.00;;;;;;;;;;5093097;28;20055;-63
2023/11/28 08:51:40;;;;;;;7.75;6.38;;;;;;;;;;5093160;28;20048;-63
2023/11/28 08:54:07;;;;;;;7.70;6.28;;;;;;;;;;5093267;28;20052;-63
2023/11/28 08:56:34;;;;;;;12.20;9.57;;;;;;;;;;5093084;28;20052;-63
2023/11/28 08:59:00;;;;;;;11.75;10.25;;;;;;;;;;5093384;28;20063;-63
2023/11/28 09:01:27;;;;;;;11.05;8.77;;;;;;;;;;5092931;28;20047;-63
2023/11/28 09:03:55;;;;;;;13.82;11.55;;;;;;;;;;5093105;28;20500;-63
2023/11/28 09:06:22;;;;;;;9.82;8.18;;;;;;;;;;5092704;28;20056;-63
2023/11/28 09:08:49;;;;;;;9.55;7.82;;;;;;;;;;5092535;28;20412;-63
2023/11/28 09:11:16;;;;;;;8.20;6.88;;;;;;;;;;5092779;28;20397;-63
2023/11/28 09:13:43;;;;;;;10.27;8.82;;;;;;;;;;5092786;28;20063;-63
2023/11/28 09:16:11;;;;;;;13.27;9.20;;;;;;;;;;5092868;28;20062;-63
2023/11/28 09:18:38;;;;;;;11.15;8.32;;;;;;;;;;5092559;28;20051;-63
2023/11/28 09:21:07;;;;;;;11.52;9.80;;;;;;;;;;5092038;28;20400;-63
2023/11/28 09:23:34;;;;;;;16.27;12.37;;;;;;;;;;5092451;28;20079;-63
2023/11/28 09:26:01;;;;;;;7.32;5.25;;;;;;;;;;5092401;28;20055;-64
2023/11/28 09:28:28;;;;;;;7.65;6.85;;;;;;;;;;5092915;28;20068;-63
2023/11/28 09:30:55;;;;;;;6.75;5.63;;;;;;;;;;5092379;28;20051;-63
2023/11/28 09:33:21;;;;;;;8.07;5.40;;;;;;;;;;5092480;28;20068;-63
2023/11/28 09:35:49;;;;;;;6.38;4.72;;;;;;;;;;5092285;28;20043;-63
2023/11/28 09:38:17;;;;;;;7.03;5.57;;;;;;;;;;5092365;28;20060;-63
2023/11/28 09:40:44;;;;;;;9.88;7.57;;;;;;;;;;5092140;28;20059;-63
2023/11/28 09:43:11;;;;;;;14.30;11.85;;;;;;;;;;5091998;28;20371;-63
2023/11/28 09:45:40;;;;;;;8.65;7.80;;;;;;;;;;5075035;28;20052;-63
2023/11/28 09:48:08;;;;;;;7.65;6.50;;;;;;;;;;5072532;28;20063;-63
2023/11/28 09:50:38;;;;;;;8.88;6.72;;;;;;;;;;5071765;28;20470;-63
2023/11/28 09:53:05;;;;;;;8.88;6.88;;;;;;;;;;5070492;28;20060;-63
2023/11/28 09:55:33;;;;;;;7.25;4.90;;;;;;;;;;5072146;28;20059;-63
2023/11/28 09:58:03;;;;;;;5.82;4.90;;;;;;;;;;5072159;28;20060;-63
2023/11/28 10:00:35;;;;;;;5.85;4.70;;;;;;;;;;5071856;28;20057;-62
2023/11/28 10:03:02;;;;;;;5.20;4.22;;;;;;;;;;5071641;28;20052;-62
2023/11/28 10:05:29;;;;;;;6.45;4.80;;;;;;;;;;5071631;28;20053;-62
2023/11/28 10:07:56;;;;;;;6.05;4.97;;;;;;;;;;5071612;28;20064;-62
2023/11/28 10:10:24;;;;;;;8.82;5.65;;;;;;;;;;5071987;28;20056;-62
2023/11/28 10:12:53;;;;;;;5.82;5.05;;;;;;;;;;5072071;28;20052;-62
2023/11/28 10:15:20;;;;;;;6.40;5.28;;;;;;;;;;5071355;28;20053;-62
2023/11/28 10:17:47;;;;;;;6.18;4.40;;;;;;;;;;5072209;28;20128;-62
2023/11/28 10:20:14;;;;;;;5.90;5.30;;;;;;;;;;5071799;28;20056;-62
2023/11/28 10:22:49;;;;;;;10.10;6.28;;;;;;;;;;5071356;28;20059;-62
2023/11/28 10:25:16;;;;;;;7.07;5.60;;;;;;;;;;5071625;28;20050;-62
2023/11/28 10:27:43;;;;;;;6.05;5.15;;;;;;;;;;5071567;28;20061;-61
2023/11/28 10:30:13;;;;;;;6.50;5.22;;;;;;;;;;5071439;28;20132;-62
2023/11/28 10:32:39;;;;;;;6.45;5.35;;;;;;;;;;5073616;28;20052;-62
2023/11/28 10:35:07;;;;;;;5.20;4.60;;;;;;;;;;5075049;28;20432;-62
2023/11/28 10:37:34;;;;;;;5.38;4.75;;;;;;;;;;5075325;28;20052;-62
2023/11/28 10:40:04;;;;;;;7.57;5.50;;;;;;;;;;5075449;28;20053;-62
2023/11/28 10:42:31;;;;;;;5.20;4.43;;;;;;;;;;5075119;28;20544;-62
2023/11/28 10:44:58;;;;;;;7.95;6.65;;;;;;;;;;5074800;28;20052;-62
2023/11/28 10:47:28;;;;;;;7.03;5.85;;;;;;;;;;5074943;28;20052;-62
2023/11/28 10:49:55;;;;;;;6.80;5.63;;;;;;;;;;5075095;28;20056;-62
2023/11/28 10:52:24;;;;;;;7.70;5.65;;;;;;;;;;5075284;28;20049;-62
2023/11/28 10:54:53;;;;;;;7.57;5.00;;;;;;;;;;5074867;28;20166;-62
2023/11/28 10:57:21;;;;;;;7.23;5.63;;;;;;;;;;5075226;28;20055;-61
2023/11/28 10:59:49;;;;;;;8.80;6.35;;;;;;;;;;5074625;28;20063;-62
2023/11/28 11:02:16;;;;;;;8.70;7.00;;;;;;;;;;5075208;28;20052;-61
2023/11/28 11:04:46;;;;;;;9.07;6.70;;;;;;;;;;5074750;28;20496;-61
2023/11/28 11:07:13;;;;;;;11.18;9.95;;;;;;;;;;5075266;28;20066;-62
2023/11/28 11:09:40;;;;;;;9.38;8.35;;;;;;;;;;5074833;28;20401;-62
2023/11/28 11:12:08;;;;;;;9.60;8.05;;;;;;;;;;5074714;28;20048;-61
2023/11/28 11:14:41;;;;;;;7.72;6.90;;;;;;;;;;5074587;28;20056;-61
2023/11/28 11:17:11;;;;;;;7.90;6.30;;;;;;;;;;5074801;28;20067;-61
2023/11/28 11:19:39;;;;;;;8.68;6.40;;;;;;;;;;5074576;28;20048;-61
2023/11/28 11:22:09;;;;;;;6.60;5.47;;;;;;;;;;5074702;28;20072;-61
2023/11/28 11:24:37;;;;;;;12.35;10.52;;;;;;;;;;5074510;28;20052;-61
2023/11/28 11:27:04;;;;;;;9.88;8.80;;;;;;;;;;5074697;28;20060;-61
2023/11/28 11:29:37;;;;;;;7.88;6.70;;;;;;;;;;5074112;28;20052;-61
2023/11/28 11:32:06;;;;;;;6.07;5.45;;;;;;;;;;5074599;28;20059;-62
2023/11/28 11:34:34;;;;;;;6.95;5.85;;;;;;;;;;5074342;28;20044;-61
2023/11/28 11:37:09;;;;;;;7.53;6.40;;;;;;;;;;5074027;28;20056;-62
2023/11/28 11:39:37;;;;;;;6.15;5.20;;;;;;;;;;5073867;28;20060;-61
2023/11/28 11:42:04;;;;;;;5.80;5.20;;;;;;;;;;5073548;28;20057;-61
2023/11/28 11:44:31;;;;;;;5.82;4.90;;;;;;;;;;5073654;28;20049;-61
2023/11/28 11:47:02;;;;;;;6.18;5.22;;;;;;;;;;5074094;28;20048;-61
2023/11/28 11:49:29;;;;;;;10.93;8.25;;;;;;;;;;5073877;28;20055;-61
2023/11/28 11:51:57;;;;;;;9.43;7.28;;;;;;;;;;5074252;28;20048;-61
2023/11/28 11:54:25;;;;;;;7.03;4.97;;;;;;;;;;5074009;28;20060;-61
2023/11/28 11:56:52;;;;;;;7.28;5.75;;;;;;;;;;5073825;28;20045;-61
2023/11/28 11:59:20;;;;;;;15.57;9.27;;;;;;;;;;5073470;28;20119;-61
2023/11/28 12:01:50;;;;;;;6.43;5.32;;;;;;;;;;5073797;28;20052;-61
2023/11/28 12:04:16;;;;;;;;;;;;;;;;;;5074599;28;20516;-61
2023/11/28 12:06:43;;;;;;;10.88;7.70;;;;;;;;;;5074056;28;19920;-61
2023/11/28 12:09:10;;;;;;;11.05;8.35;;;;;;;;;;5072479;28;20056;-61
2023/11/28 12:11:38;;;;;;;15.32;9.50;;;;;;;;;;5073544;28;20404;-62
2023/11/28 12:14:05;;;;;;;14.27;8.70;;;;;;;;;;5073608;28;20057;-62
2023/11/28 12:16:32;;;;;;;9.88;6.97;;;;;;;;;;5073637;28;20073;-61
2023/11/28 12:18:59;;;;;;;14.73;9.35;;;;;;;;;;5073120;28;20058;-61
2023/11/28 12:21:26;;;;;;;8.60;6.82;;;;;;;;;;5073231;28;20052;-61
2023/11/28 12:23:53;;;;;;;17.67;11.80;;;;;;;;;;5073226;28;20057;-61
2023/11/28 12:26:20;;;;;;;10.05;7.93;;;;;;;;;;5073455;28;20500;-61
2023/11/28 12:28:48;;;;;;;15.93;10.38;;;;;;;;;;5073199;28;20056;-61
2023/11/28 12:31:15;;;;;;;13.20;8.93;;;;;;;;;;5073463;28;20060;-61
2023/11/28 12:33:41;;;;;;;8.82;6.90;;;;;;;;;;5072854;28;20438;-61
2023/11/28 12:36:09;;;;;;;7.78;5.60;;;;;;;;;;5072854;28;20056;-61
2023/11/28 12:38:37;;;;;;;7.50;6.53;;;;;;;;;;5072600;28;20049;-61
2023/11/28 12:41:04;;;;;;;8.20;6.35;;;;;;;;;;5073130;28;20057;-61
2023/11/28 12:43:34;;;;;;;7.47;6.53;;;;;;;;;;5073135;28;20543;-61
2023/11/28 12:46:03;;;;;;;6.18;5.30;;;;;;;;;;5072801;28;20076;-62
2023/11/28 12:48:31;;;;;;;5.78;5.18;;;;;;;;;;5072942;28;20052;-62
2023/11/28 12:50:59;;;;;;;5.75;5.03;;;;;;;;;;5073025;28;20060;-61
2023/11/28 12:53:27;;;;;;;6.78;6.05;;;;;;;;;;5072732;28;20056;-61
2023/11/28 12:55:54;;;;;;;5.70;4.97;;;;;;;;;;5071907;28;20135;-61
2023/11/28 12:58:24;;;;;;;6.80;5.78;;;;;;;;;;5072514;28;20052;-61
2023/11/28 13:00:51;;;;;;;5.82;5.18;;;;;;;;;;5073021;28;20052;-61
2023/11/28 13:03:19;;;;;;;5.78;5.18;;;;;;;;;;5072425;28;20044;-61
2023/11/28 13:05:46;;;;;;;5.57;5.00;;;;;;;;;;5072784;28;20106;-61
2023/11/28 13:08:14;;;;;;;5.60;5.10;;;;;;;;;;5072420;28;20066;-61
2023/11/28 13:10:41;;;;;;;6.13;5.47;;;;;;;;;;5072354;28;20064;-61
2023/11/28 13:13:08;;;;;;;9.20;7.95;;;;;;;;;;5072446;28;20063;-62
2023/11/28 13:15:35;;;;;;;36.13;21.33;;;;;;;;;;5072407;28;20061;-61
2023/11/28 13:18:02;;;;;;;15.38;10.65;;;;;;;;;;5072606;28;20481;-61
2023/11/28 13:20:30;;;;;;;15.45;10.13;;;;;;;;;;5072338;28;20056;-61
2023/11/28 13:22:57;;;;;;;11.43;9.43;;;;;;;;;;5072259;28;20064;-61
2023/11/28 13:25:24;;;;;;;11.02;9.00;;;;;;;;;;5071926;28;20048;-61
2023/11/28 13:27:51;;;;;;;11.23;9.55;;;;;;;;;;5072387;28;20044;-61
2023/11/28 13:30:18;;;;;;;10.73;9.25;;;;;;;;;;5071919;28;20060;-61
2023/11/28 13:32:45;;;;;;;12.93;10.68;;;;;;;;;;5072545;28;20048;-61
2023/11/28 13:35:12;;;;;;;10.48;9.38;;;;;;;;;;5072060;28;20370;-61
2023/11/28 13:37:41;;;;;;;10.68;8.07;;;;;;;;;;5072042;28;20055;-61
2023/11/28 13:40:11;;;;;;;13.90;12.35;;;;;;;;;;5071819;28;20056;-61
2023/11/28 13:42:38;;;;;;;13.90;11.75;;;;;;;;;;5072162;28;20432;-61
2023/11/28 13:45:07;;;;;;;21.63;15.90;;;;;;;;;;5072122;28;20052;-61
2023/11/28 13:47:34;;;;;;;13.65;9.95;;;;;;;;;;5072591;28;20051;-61
2023/11/28 13:50:00;;;;;;;13.15;10.55;;;;;;;;;;5071687;28;20048;-61
2023/11/28 13:52:27;;;;;;;5.95;5.32;;;;;;;;;;5072406;28;20057;-61
2023/11/28 13:54:58;;;;;;;5.85;5.03;;;;;;;;;;5071816;28;20413;-61
2023/11/28 13:57:26;;;;;;;12.05;10.10;;;;;;;;;;5070627;28;20044;-61
2023/11/28 13:59:53;;;;;;;5.88;5.28;;;;;;;;;;5072286;28;20056;-61
2023/11/28 14:02:20;;;;;;;8.65;6.18;;;;;;;;;;5072188;28;20059;-61
2023/11/28 14:04:47;;;;;;;6.88;5.70;;;;;;;;;;5071646;28;20071;-61
2023/11/28 14:07:14;;;;;;;6.57;5.88;;;;;;;;;;5075391;28;20048;-61
2023/11/28 14:09:40;;;;;;;9.85;8.60;;;;;;;;;;5075600;28;20052;-61
2023/11/28 14:12:09;;;;;;;8.82;6.60;;;;;;;;;;5075625;28;20048;-60
2023/11/28 14:14:36;;;;;;;7.80;7.00;;;;;;;;;;5075712;28;20052;-61
2023/11/28 14:17:05;;;;;;;9.10;7.22;;;;;;;;;;5075996;28;20059;-61
2023/11/28 14:19:31;;;;;;;7.70;6.72;;;;;;;;;;5076104;28;20516;-61
2023/11/28 14:21:58;;;;;;;10.55;8.20;;;;;;;;;;5076073;28;20158;-61
2023/11/28 14:24:25;;;;;;;10.90;8.88;;;;;;;;;;5075426;28;20052;-61
2023/11/28 14:26:53;;;;;;;10.63;8.23;;;;;;;;;;5075887;28;20049;-61
2023/11/28 14:29:21;;;;;;;9.77;7.60;;;;;;;;;;5075890;28;20057;-61
2023/11/28 14:31:48;;;;;;;9.30;6.53;;;;;;;;;;5075579;28;20056;-60
2023/11/28 14:34:15;;;;;;;7.93;6.30;;;;;;;;;;5075760;28;20477;-61
2023/11/28 14:36:42;;;;;;;6.45;5.80;;;;;;;;;;5075651;28;20049;-60